Time;durP1;ratioP1;P1;durP2;ratioP2;P2;SDS_P1;SDS_P2;PMS_P1;PMS_P2;Temp;Humidity;BMP_temperature;BMP_pressure;BME280_temperature;BME280_humidity;BME280_pressure;Samples;Min_cycle;Max_cycle;Signal;HPM_P1;HPM_P2
2022/06/12 00:00:25;;;;;;;6.75;1.58;;;16.50;99.90;;;;;;5079418;28;20066;-64
2022/06/12 00:02:51;;;;;;;3.50;1.50;;;16.30;99.90;;;;;;5079470;28;20021;-64
2022/06/12 00:05:22;;;;;;;6.50;2.22;;;16.30;99.90;;;;;;5079333;28;20068;-65
2022/06/12 00:07:48;;;;;;;3.17;1.35;;;16.10;99.90;;;;;;5078815;28;20457;-62
2022/06/12 00:10:14;;;;;;;5.43;2.10;;;16.10;99.90;;;;;;5079239;28;20032;-62
2022/06/12 00:12:42;;;;;;;3.92;1.70;;;16.10;99.90;;;;;;5079140;28;20077;-63
2022/06/12 00:15:10;;;;;;;3.70;1.60;;;16.00;99.90;;;;;;5079266;28;20323;-63
2022/06/12 00:17:35;;;;;;;3.92;1.52;;;15.90;99.90;;;;;;5079022;28;20388;-63
2022/06/12 00:20:02;;;;;;;4.47;1.73;;;15.90;99.90;;;;;;5079667;28;20276;-63
2022/06/12 00:22:27;;;;;;;7.03;1.77;;;15.90;99.90;;;;;;5079024;28;20028;-63
2022/06/12 00:24:53;;;;;;;5.00;1.63;;;16.00;99.90;;;;;;5078967;28;20043;-63
2022/06/12 00:27:19;;;;;;;5.13;2.08;;;15.90;99.90;;;;;;5078883;28;20277;-63
2022/06/12 00:29:47;;;;;;;7.45;1.90;;;15.80;99.90;;;;;;5078064;28;20106;-63
2022/06/12 00:32:15;;;;;;;5.43;1.88;;;15.60;99.90;;;;;;5078781;28;20098;-63
2022/06/12 00:34:53;;;;;;;6.63;2.25;;;15.60;99.90;;;;;;5078879;28;20028;-63
2022/06/12 00:37:21;;;;;;;5.30;1.95;;;15.60;99.90;;;;;;5078665;28;20036;-63
2022/06/12 00:39:50;;;;;;;4.90;1.77;;;15.60;99.90;;;;;;5078015;28;20016;-64
2022/06/12 00:42:33;;;;;;;4.28;1.48;;;15.60;99.90;;;;;;5077906;28;20351;-64
2022/06/12 00:45:02;;;;;;;4.72;1.70;;;15.50;99.90;;;;;;5079085;28;20108;-63
2022/06/12 00:47:28;;;;;;;4.05;1.83;;;15.50;99.90;;;;;;5078485;28;20035;-64
2022/06/12 00:50:02;;;;;;;7.55;1.80;;;15.60;99.90;;;;;;5078375;28;20036;-63
2022/06/12 00:52:40;;;;;;;4.57;1.70;;;15.50;99.90;;;;;;5078272;28;20304;-64
2022/06/12 00:55:24;;;;;;;5.30;1.63;;;15.50;99.90;;;;;;5078418;28;20036;-64
2022/06/12 00:57:53;;;;;;;6.95;1.30;;;15.50;99.90;;;;;;5078478;28;20033;-63
2022/06/12 01:00:19;;;;;;;4.93;1.58;;;15.50;99.90;;;;;;5078768;28;20067;-64
2022/06/12 01:02:45;;;;;;;5.15;1.73;;;15.40;99.90;;;;;;5078179;28;20036;-64
2022/06/12 01:08:01;;;;;;;4.65;1.80;;;15.20;99.90;;;;;;5078251;28;20130;-64
2022/06/12 01:10:29;;;;;;;6.47;2.08;;;15.20;99.90;;;;;;5078016;28;20047;-64
2022/06/12 01:13:04;;;;;;;3.80;2.03;;;15.20;99.90;;;;;;5077544;28;20380;-64
2022/06/12 01:15:36;;;;;;;5.57;2.13;;;15.20;99.90;;;;;;5077877;28;20029;-64
2022/06/12 01:18:03;;;;;;;3.85;2.38;;;15.10;99.90;;;;;;5078224;28;20388;-65
2022/06/12 01:20:36;;;;;;;9.48;2.63;;;15.10;99.90;;;;;;5077807;28;20040;-63
2022/06/12 01:23:21;;;;;;;5.05;2.13;;;15.20;99.90;;;;;;5078115;28;20024;-63
2022/06/12 01:26:20;;;;;;;6.22;2.05;;;15.30;99.90;;;;;;5077749;28;20047;-64
2022/06/12 01:29:04;;;;;;;5.57;2.10;;;15.10;99.90;;;;;;5078331;28;20037;-63
2022/06/12 01:31:42;;;;;;;5.43;2.40;;;15.10;99.90;;;;;;5077966;28;20033;-64
2022/06/12 01:34:14;;;;;;;8.02;2.58;;;15.20;99.90;;;;;;5077642;28;20033;-63
2022/06/12 01:36:47;;;;;;;6.90;2.67;;;15.20;99.90;;;;;;5077659;28;20269;-64
2022/06/12 01:39:17;;;;;;;8.80;3.25;;;15.10;99.90;;;;;;5077970;28;20040;-63
2022/06/12 01:42:07;;;;;;;6.28;2.00;;;15.00;99.90;;;;;;5076623;28;20028;-64
2022/06/12 01:44:55;;;;;;;6.13;1.67;;;14.90;99.90;;;;;;5076599;28;20039;-64
2022/06/12 01:47:20;;;;;;;3.85;1.75;;;14.80;99.90;;;;;;5077346;28;20303;-64
2022/06/12 01:49:57;;;;;;;4.82;1.50;;;14.80;99.90;;;;;;5077753;28;20113;-64
2022/06/12 01:52:53;;;;;;;5.45;1.85;;;14.80;99.90;;;;;;5077099;28;20051;-64
2022/06/12 01:55:19;;;;;;;6.78;1.63;;;14.90;99.90;;;;;;5077209;28;20119;-64
2022/06/12 01:57:49;;;;;;;5.22;1.98;;;14.90;99.90;;;;;;5077138;28;20163;-64
2022/06/12 02:00:20;;;;;;;4.45;1.70;;;14.90;99.90;;;;;;5077812;28;20388;-64
2022/06/12 02:03:14;;;;;;;4.68;1.80;;;14.90;99.90;;;;;;5077191;28;20032;-64
2022/06/12 02:05:57;;;;;;;6.03;1.77;;;14.90;99.90;;;;;;5077696;28;20107;-65
2022/06/12 02:08:26;;;;;;;;;;;14.90;99.90;;;;;;5078170;28;20028;-63
2022/06/12 02:13:11;;;;;;;5.88;1.30;;;14.80;99.90;;;;;;5077367;28;20303;-64
2022/06/12 02:13:53;;;;;;;3.35;1.20;;;14.90;99.90;;;;;;5077673;28;20031;-63
2022/06/12 02:16:24;;;;;;;5.75;1.38;;;14.90;99.90;;;;;;5075983;28;20423;-63
2022/06/12 02:18:54;;;;;;;6.13;1.23;;;14.80;99.90;;;;;;5076946;28;20108;-63
2022/06/12 02:21:30;;;;;;;3.65;1.40;;;14.80;99.90;;;;;;5077255;28;20400;-64
2022/06/12 02:24:11;;;;;;;5.00;1.52;;;14.80;99.90;;;;;;5077039;28;20024;-64
2022/06/12 02:26:58;;;;;;;5.13;1.75;;;14.80;99.90;;;;;;5076809;28;20032;-64
2022/06/12 02:29:33;;;;;;;3.45;1.70;;;14.70;99.90;;;;;;5076161;28;20032;-64
2022/06/12 02:32:07;;;;;;;8.40;2.03;;;14.80;99.90;;;;;;5076903;28;20040;-64
2022/06/12 02:34:38;;;;;;;4.53;1.83;;;14.80;99.90;;;;;;5076805;28;20025;-66
2022/06/12 02:37:15;;;;;;;7.50;2.30;;;14.80;99.90;;;;;;5076661;28;20405;-64
2022/06/12 02:39:46;;;;;;;8.15;3.17;;;14.70;99.90;;;;;;5077354;28;20074;-64
2022/06/12 02:42:17;;;;;;;5.93;3.22;;;14.70;99.90;;;;;;5076741;28;20037;-63
2022/06/12 02:44:52;;;;;;;7.75;3.75;;;14.70;99.90;;;;;;5076702;28;20100;-64
2022/06/12 02:47:23;;;;;;;7.78;3.00;;;14.60;99.90;;;;;;5076695;28;20028;-64
2022/06/12 02:49:50;;;;;;;8.02;3.00;;;14.60;99.90;;;;;;5076939;28;20024;-63
2022/06/12 02:52:53;;;;;;;11.93;3.35;;;14.60;99.90;;;;;;5076503;28;20061;-63
2022/06/12 02:55:44;;;;;;;6.13;3.03;;;14.60;99.90;;;;;;5076543;28;20040;-64
2022/06/12 02:58:32;;;;;;;6.40;2.83;;;14.50;99.90;;;;;;5076557;28;20016;-64
2022/06/12 03:01:07;;;;;;;6.93;2.90;;;14.50;99.90;;;;;;5076465;28;20025;-63
2022/06/12 03:04:00;;;;;;;9.10;2.90;;;14.50;99.90;;;;;;5075917;28;20028;-64
2022/06/12 03:06:27;;;;;;;7.75;2.28;;;14.40;99.90;;;;;;5075741;28;20051;-63
2022/06/12 03:09:02;;;;;;;9.50;2.30;;;14.20;99.90;;;;;;5076549;28;20334;-64
2022/06/12 03:11:36;;;;;;;6.80;1.98;;;14.10;99.90;;;;;;5076436;28;20025;-63
2022/06/12 03:14:08;;;;;;;5.22;1.70;;;14.20;99.90;;;;;;5076402;28;20064;-63
2022/06/12 03:16:37;;;;;;;7.53;2.10;;;14.30;99.90;;;;;;5077121;28;20113;-64
2022/06/12 03:19:17;;;;;;;9.43;2.22;;;14.20;99.90;;;;;;5080160;28;20021;-63
2022/06/12 03:22:06;;;;;;;6.07;1.50;;;14.00;99.90;;;;;;5080042;28;20029;-63
2022/06/12 03:24:52;;;;;;;6.78;1.60;;;14.00;99.90;;;;;;5079556;28;20052;-64
2022/06/12 03:27:32;;;;;;;6.60;1.63;;;14.00;99.90;;;;;;5080056;28;20039;-63
2022/06/12 03:30:22;;;;;;;7.95;1.70;;;14.10;99.90;;;;;;5080097;28;20032;-64
2022/06/12 03:33:14;;;;;;;9.48;1.80;;;14.10;99.90;;;;;;5079943;28;20032;-64
2022/06/12 03:35:47;;;;;;;6.13;1.80;;;14.00;99.90;;;;;;5076166;28;20123;-65
2022/06/12 03:38:18;;;;;;;5.70;1.42;;;14.00;99.90;;;;;;5079436;28;20086;-65
2022/06/12 03:40:54;;;;;;;3.88;1.48;;;14.00;99.90;;;;;;5079699;28;20021;-65
2022/06/12 03:43:19;;;;;;;7.03;2.03;;;14.00;99.90;;;;;;5079801;28;20034;-65
2022/06/12 03:46:01;;;;;;;6.30;1.60;;;14.00;99.90;;;;;;5079666;28;20033;-65
2022/06/12 03:48:38;;;;;;;7.35;1.98;;;13.80;99.90;;;;;;5079469;28;20118;-65
2022/06/12 03:51:22;;;;;;;7.30;2.03;;;13.70;99.90;;;;;;5079339;28;20098;-65
2022/06/12 03:54:00;;;;;;;6.10;1.65;;;13.60;99.90;;;;;;5078610;28;20047;-65
2022/06/12 04:00:08;;;;;;;5.15;1.60;;;13.50;99.90;;;;;;5079702;28;20028;-65
2022/06/12 04:02:42;;;;;;;26.92;16.27;;;13.40;99.90;;;;;;5079517;28;20060;-63
2022/06/12 04:05:11;;;;;;;8.43;1.77;;;13.30;99.90;;;;;;5079128;28;20032;-65
2022/06/12 04:07:45;;;;;;;7.47;1.67;;;13.20;99.90;;;;;;5079311;28;20098;-65
2022/06/12 04:10:22;;;;;;;7.28;1.63;;;13.20;99.90;;;;;;5079324;28;20440;-65
2022/06/12 04:12:48;;;;;;;6.75;1.60;;;13.20;99.90;;;;;;5079217;28;20093;-65
2022/06/12 04:15:26;;;;;;;8.00;1.80;;;13.30;99.90;;;;;;5079079;28;20028;-66
2022/06/12 04:17:52;;;;;;;8.40;2.15;;;13.30;99.90;;;;;;5079143;28;20032;-66
2022/06/12 04:20:27;;;;;;;6.00;1.90;;;13.30;99.90;;;;;;5079099;28;20055;-65
2022/06/12 04:23:03;;;;;;;9.43;2.15;;;13.30;99.90;;;;;;5079125;28;20028;-65
2022/06/12 04:25:42;;;;;;;9.93;2.25;;;13.30;99.90;;;;;;5079050;28;20097;-65
2022/06/12 04:28:28;;;;;;;7.10;1.95;;;13.50;99.90;;;;;;5076978;28;20036;-65
2022/06/12 04:30:55;;;;;;;11.20;2.55;;;13.50;99.90;;;;;;5078287;28;20139;-65
2022/06/12 04:33:20;;;;;;;8.75;2.42;;;13.50;99.90;;;;;;5078761;28;20094;-65
2022/06/12 04:36:05;;;;;;;9.50;2.20;;;13.60;99.90;;;;;;5077884;28;20040;-65
2022/06/12 04:38:33;;;;;;;8.55;2.35;;;13.80;99.90;;;;;;5078756;28;20024;-66
2022/06/12 04:40:59;;;;;;;7.40;2.00;;;13.80;99.90;;;;;;5078715;28;20060;-65
2022/06/12 04:43:25;;;;;;;9.25;2.40;;;14.00;99.90;;;;;;5078860;28;20078;-66
2022/06/12 04:45:52;;;;;;;8.25;2.40;;;14.10;99.90;;;;;;5078609;28;20040;-66
2022/06/12 04:48:39;;;;;;;10.93;2.20;;;14.00;99.90;;;;;;5078546;28;20036;-65
2022/06/12 04:51:07;;;;;;;7.15;2.35;;;14.00;99.90;;;;;;5078753;28;20445;-64
2022/06/12 04:53:33;;;;;;;10.38;2.75;;;14.10;99.90;;;;;;5078176;28;20057;-65
2022/06/12 04:55:59;;;;;;;10.35;2.60;;;14.10;99.90;;;;;;5077799;28;20036;-65
2022/06/12 04:58:25;;;;;;;12.68;3.13;;;14.30;99.90;;;;;;5077699;28;20024;-65
2022/06/12 05:00:52;;;;;;;8.88;2.83;;;14.50;99.90;;;;;;5078485;28;20036;-66
2022/06/12 05:03:18;;;;;;;12.05;3.13;;;14.50;99.90;;;;;;5078423;28;20040;-66
2022/06/12 05:05:44;;;;;;;13.90;3.13;;;14.50;99.90;;;;;;5077394;28;20036;-67
2022/06/12 05:08:10;;;;;;;11.88;2.85;;;14.40;99.90;;;;;;5077448;28;20032;-66
2022/06/12 05:10:36;;;;;;;9.52;2.42;;;14.40;99.90;;;;;;5077960;28;20038;-65
2022/06/12 05:13:02;;;;;;;10.15;2.58;;;14.50;99.90;;;;;;5077185;28;20043;-66
2022/06/12 05:15:29;;;;;;;11.70;2.92;;;14.50;99.90;;;;;;5078019;28;20020;-65
2022/06/12 05:17:55;;;;;;;7.82;2.50;;;14.30;99.90;;;;;;5077960;28;20036;-64
2022/06/12 05:20:27;;;;;;;15.77;3.50;;;14.50;99.90;;;;;;5077415;28;20392;-65
2022/06/12 05:22:53;;;;;;;14.25;2.90;;;14.50;99.90;;;;;;5077150;28;20423;-66
2022/06/12 05:25:20;;;;;;;15.15;3.42;;;14.60;99.90;;;;;;5077824;28;20028;-65
2022/06/12 05:27:47;;;;;;;10.02;2.90;;;14.60;99.90;;;;;;5077923;28;20318;-65
2022/06/12 05:30:17;;;;;;;11.77;3.17;;;14.70;99.90;;;;;;5077767;28;20059;-64
2022/06/12 05:32:44;;;;;;;12.35;3.40;;;14.80;99.90;;;;;;5077884;28;20032;-65
2022/06/12 05:35:11;;;;;;;12.57;2.95;;;14.90;99.90;;;;;;5077143;28;20029;-65
2022/06/12 05:37:36;;;;;;;11.63;3.38;;;14.80;99.90;;;;;;5077593;28;20028;-66
2022/06/12 05:40:04;;;;;;;14.77;3.90;;;14.90;99.90;;;;;;5077250;28;20448;-67
2022/06/12 05:42:30;;;;;;;9.60;3.05;;;14.80;99.90;;;;;;5077493;28;20111;-65
2022/06/12 05:44:56;;;;;;;12.82;3.97;;;14.80;99.90;;;;;;5077341;28;20107;-67
2022/06/12 05:47:22;;;;;;;17.67;3.83;;;15.00;99.90;;;;;;5077674;28;20043;-66
2022/06/12 05:49:48;;;;;;;13.52;3.70;;;15.10;99.90;;;;;;5077435;28;20098;-66
2022/06/12 05:52:14;;;;;;;13.93;3.97;;;15.30;99.90;;;;;;5076509;28;20048;-67
2022/06/12 05:54:40;;;;;;;14.88;3.92;;;15.40;99.90;;;;;;5077309;28;20051;-67
2022/06/12 05:57:06;;;;;;;11.65;3.70;;;15.50;99.90;;;;;;5077301;28;20119;-67
2022/06/12 05:59:32;;;;;;;13.80;3.88;;;15.50;99.90;;;;;;5077252;28;20029;-67
2022/06/12 06:01:58;;;;;;;15.20;4.10;;;15.50;99.90;;;;;;5076548;28;20043;-67
2022/06/12 06:04:24;;;;;;;15.23;4.07;;;15.50;99.90;;;;;;5077592;28;20305;-66
2022/06/12 06:06:53;;;;;;;12.90;3.90;;;15.70;99.90;;;;;;5077111;28;20032;-66
2022/06/12 06:09:21;;;;;;;14.90;4.20;;;15.80;99.90;;;;;;5077118;28;20354;-66
2022/06/12 06:11:47;;;;;;;16.80;4.50;;;15.80;99.90;;;;;;5077021;28;20032;-63
2022/06/12 06:14:14;;;;;;;18.30;4.10;;;15.80;99.90;;;;;;5077575;28;20392;-62
2022/06/12 06:16:41;;;;;;;10.65;3.63;;;16.00;99.90;;;;;;5076278;28;20316;-66
2022/06/12 06:19:07;;;;;;;11.82;4.18;;;16.10;99.90;;;;;;5077066;28;20028;-63
2022/06/12 06:21:33;;;;;;;15.40;4.45;;;16.20;99.90;;;;;;5076982;28;20410;-66
2022/06/12 06:23:59;;;;;;;14.32;4.50;;;16.20;99.90;;;;;;5076302;28;20103;-65
2022/06/12 06:26:25;;;;;;;16.20;5.05;;;16.20;99.90;;;;;;5076954;28;20127;-66
2022/06/12 06:28:52;;;;;;;15.77;4.90;;;15.90;99.90;;;;;;5076144;28;20308;-66
2022/06/12 06:31:19;;;;;;;15.98;4.75;;;15.80;99.90;;;;;;5077369;28;20020;-65
2022/06/12 06:33:45;;;;;;;17.08;4.55;;;15.80;99.90;;;;;;5076856;28;20047;-66
2022/06/12 06:36:12;;;;;;;20.88;4.97;;;16.00;99.90;;;;;;5076337;28;20024;-65
2022/06/12 06:38:38;;;;;;;16.15;5.20;;;16.30;99.90;;;;;;5076184;28;20097;-65
2022/06/12 06:41:05;;;;;;;19.38;5.25;;;16.40;99.90;;;;;;5076765;28;20036;-62
2022/06/12 06:46:13;;;;;;;17.08;5.43;;;16.30;99.90;;;;;;5076043;28;20300;-64
2022/06/12 06:46:17;;;;;;;18.08;5.03;;;16.60;99.90;;;;;;5076723;28;20043;-66
2022/06/12 06:48:43;;;;;;;14.43;5.05;;;16.60;99.90;;;;;;5077029;28;20304;-64
2022/06/12 06:51:09;;;;;;;18.45;4.65;;;16.60;99.90;;;;;;5076754;28;20036;-65
2022/06/12 06:53:35;;;;;;;21.25;5.10;;;16.90;99.90;;;;;;5080683;28;20095;-66
2022/06/12 06:56:01;;;;;;;17.65;5.22;;;17.20;99.90;;;;;;5080637;28;20052;-64
2022/06/12 06:58:30;;;;;;;19.17;5.70;;;17.30;99.90;;;;;;5080745;28;20035;-63
2022/06/12 07:00:56;;;;;;;18.50;5.07;;;17.60;99.90;;;;;;5080664;28;20407;-62
2022/06/12 07:03:22;;;;;;;14.85;4.25;;;17.70;99.90;;;;;;5080619;28;20031;-65
2022/06/12 07:05:51;;;;;;;19.00;4.95;;;18.00;99.90;;;;;;5080563;28;20064;-64
2022/06/12 07:08:18;;;;;;;13.38;4.88;;;17.90;99.90;;;;;;5080517;28;20036;-63
2022/06/12 07:10:45;;;;;;;15.60;4.68;;;18.00;99.90;;;;;;5080550;28;20350;-65
2022/06/12 07:13:11;;;;;;;13.13;4.57;;;18.00;99.90;;;;;;5079663;28;20033;-64
2022/06/12 07:15:38;;;;;;;17.70;4.72;;;18.00;99.90;;;;;;5080330;28;20025;-66
2022/06/12 07:18:06;;;;;;;16.55;4.40;;;17.90;99.90;;;;;;5080340;28;20025;-65
2022/06/12 07:20:35;;;;;;;19.98;4.68;;;17.70;99.90;;;;;;5080245;28;20437;-65
2022/06/12 07:23:03;;;;;;;17.35;5.13;;;17.80;99.90;;;;;;5080244;28;20020;-63
2022/06/12 07:25:31;;;;;;;16.80;4.55;;;18.10;99.90;;;;;;5080680;28;20024;-65
2022/06/12 07:27:57;;;;;;;13.40;4.05;;;18.40;99.90;;;;;;5079391;28;20166;-65
2022/06/12 07:30:24;;;;;;;15.52;3.35;;;18.50;99.90;;;;;;5079443;28;20099;-67
2022/06/12 07:32:50;;;;;;;12.05;3.72;;;18.70;99.90;;;;;;5080071;28;20020;-63
2022/06/12 07:35:17;;;;;;;11.63;3.22;;;18.70;99.90;;;;;;5079869;28;20346;-68
2022/06/12 07:37:44;;;;;;;13.55;3.63;;;18.60;99.90;;;;;;5080034;28;20095;-64
2022/06/12 07:40:17;;;;;;;12.05;4.10;;;19.00;99.90;;;;;;5079912;28;20089;-65
2022/06/12 07:42:43;;;;;;;12.90;4.10;;;19.20;99.90;;;;;;5079880;28;20115;-64
2022/06/12 07:45:09;;;;;;;11.25;3.58;;;19.50;99.90;;;;;;5079783;28;20040;-65
2022/06/12 07:47:35;;;;;;;14.10;3.78;;;19.80;99.90;;;;;;5079888;28;20082;-65
2022/06/12 07:50:02;;;;;;;14.82;4.22;;;19.90;99.90;;;;;;5079775;28;20435;-67
2022/06/12 07:52:28;;;;;;;14.88;3.92;;;19.90;99.90;;;;;;5079712;28;20052;-66
2022/06/12 07:54:55;;;;;;;17.00;4.20;;;20.00;99.90;;;;;;5078960;28;20316;-65
2022/06/12 07:57:21;;;;;;;11.10;3.35;;;20.10;99.90;;;;;;5079483;28;20115;-65
2022/06/12 07:59:47;;;;;;;13.57;3.42;;;20.20;99.90;;;;;;5078751;28;20055;-64
2022/06/12 08:02:13;;;;;;;13.98;4.10;;;20.20;99.90;;;;;;5078626;28;20307;-65
2022/06/12 08:04:39;;;;;;;12.35;4.18;;;20.40;99.90;;;;;;5078785;28;20052;-63
2022/06/12 08:07:05;;;;;;;13.05;3.60;;;20.50;99.90;;;;;;5079435;28;20028;-66
2022/06/12 08:09:31;;;;;;;18.15;4.63;;;20.10;99.90;;;;;;5079451;28;20043;-64
2022/06/12 08:11:57;;;;;;;12.02;3.88;;;20.20;99.90;;;;;;5079360;28;20032;-65
2022/06/12 08:14:23;;;;;;;12.77;4.43;;;20.20;99.90;;;;;;5079333;28;20043;-65
2022/06/12 08:16:50;;;;;;;18.35;4.75;;;19.80;99.90;;;;;;5079219;28;20277;-65
2022/06/12 08:22:03;;;;;;;13.88;4.45;;;20.10;99.90;;;;;;5079203;28;20028;-65
2022/06/12 08:24:30;;;;;;;14.63;4.70;;;20.20;99.90;;;;;;5079132;28;20166;-64
2022/06/12 08:26:55;;;;;;;17.95;5.03;;;20.30;99.90;;;;;;5078967;28;20034;-64
2022/06/12 08:29:21;;;;;;;11.63;3.33;;;20.00;99.90;;;;;;5078312;28;20400;-64
2022/06/12 08:31:51;;;;;;;10.73;3.55;;;20.20;99.90;;;;;;5079341;28;20040;-65
2022/06/12 08:34:31;;;;;;;14.27;3.10;;;20.50;99.90;;;;;;5079060;28;20028;-66
2022/06/12 08:37:01;;;;;;;9.57;3.47;;;20.70;99.90;;;;;;5078804;28;20032;-65
2022/06/12 08:39:27;;;;;;;11.65;3.40;;;20.80;99.90;;;;;;5078068;28;20033;-64
2022/06/12 08:42:34;;;;;;;12.57;3.33;;;20.80;99.90;;;;;;5077985;28;20319;-65
2022/06/12 08:45:19;;;;;;;11.15;3.35;;;20.80;99.90;;;;;;5077407;28;20128;-65
2022/06/12 08:47:51;;;;;;;15.40;3.72;;;21.10;99.90;;;;;;5078680;28;20299;-63
2022/06/12 08:50:26;;;;;;;10.33;2.77;;;21.30;99.90;;;;;;5078840;28;20028;-63
2022/06/12 08:53:30;;;;;;;11.07;2.97;;;21.00;99.90;;;;;;5078285;28;20290;-64
2022/06/12 08:56:04;;;;;;;8.75;2.78;;;20.50;99.90;;;;;;5078355;28;20058;-65
2022/06/12 08:58:43;;;;;;;10.63;2.88;;;20.70;99.90;;;;;;5078424;28;20453;-65
2022/06/12 09:01:11;;;;;;;10.85;2.95;;;20.80;99.90;;;;;;5060963;28;20300;-63
2022/06/12 09:03:49;;;;;;;11.23;2.80;;;20.80;99.90;;;;;;5077576;28;20025;-63
2022/06/12 09:06:36;;;;;;;8.65;2.38;;;20.90;99.90;;;;;;5077403;28;20041;-62
2022/06/12 09:09:19;;;;;;;7.97;2.22;;;20.90;99.90;;;;;;5077391;28;20392;-65
2022/06/12 09:11:54;;;;;;;11.05;3.00;;;20.60;99.90;;;;;;5078138;28;20033;-65
2022/06/12 09:14:20;;;;;;;8.98;2.75;;;20.70;99.90;;;;;;5077530;28;20454;-67
2022/06/12 09:17:04;;;;;;;11.10;3.15;;;21.10;99.90;;;;;;5078218;28;20060;-69
2022/06/12 09:19:39;;;;;;;8.55;2.60;;;21.20;99.90;;;;;;5078484;28;20028;-67
2022/06/12 09:22:15;;;;;;;5.63;1.90;;;21.10;99.90;;;;;;5077863;28;20025;-66
2022/06/12 09:24:51;;;;;;;8.13;2.53;;;21.40;99.90;;;;;;5077832;28;20028;-65
2022/06/12 09:27:40;;;;;;;8.68;2.60;;;21.00;99.90;;;;;;5077188;28;20041;-66
2022/06/12 09:30:13;;;;;;;9.73;2.83;;;21.40;99.90;;;;;;5078148;28;20041;-66
2022/06/12 09:32:54;;;;;;;11.50;3.45;;;21.60;99.90;;;;;;5077291;28;20028;-66
2022/06/12 09:35:48;;;;;;;11.77;3.22;;;21.70;99.90;;;;;;5076877;28;20039;-66
2022/06/12 09:38:30;;;;;;;12.15;2.90;;;21.90;99.90;;;;;;5077645;28;20067;-66
2022/06/12 09:41:12;;;;;;;10.20;3.60;;;21.90;99.90;;;;;;5077554;28;20060;-66
2022/06/12 09:44:25;;;;;;;11.10;3.33;;;21.90;99.90;;;;;;5077659;28;20359;-64
2022/06/12 09:46:51;;;;;;;;;;;21.60;99.90;;;;;;5077701;28;20109;-66
2022/06/12 09:49:31;;;;;;;12.73;3.58;;;21.50;99.90;;;;;;5077388;28;19951;-65
2022/06/12 09:52:06;;;;;;;9.93;3.00;;;20.90;99.90;;;;;;5077245;28;20110;-67
2022/06/12 09:54:41;;;;;;;13.43;3.50;;;21.10;99.90;;;;;;5077402;28;20037;-67
2022/06/12 09:57:33;;;;;;;10.88;3.25;;;21.20;99.90;;;;;;5077585;28;20025;-66
2022/06/12 10:00:12;;;;;;;11.37;3.30;;;21.70;99.90;;;;;;5077947;28;20047;-67
2022/06/12 10:02:46;;;;;;;9.57;3.50;;;21.50;99.90;;;;;;5077199;28;20083;-66
2022/06/12 10:05:22;;;;;;;9.18;3.45;;;21.70;99.90;;;;;;5077678;28;20028;-65
2022/06/12 10:07:54;;;;;;;11.70;4.03;;;21.60;99.90;;;;;;5077259;28;20028;-70
2022/06/12 10:10:36;;;;;;;10.95;4.00;;;21.40;99.90;;;;;;5077142;28;20426;-66
2022/06/12 10:13:07;;;;;;;9.55;4.00;;;21.30;99.90;;;;;;5077170;28;20071;-66
2022/06/12 10:15:41;;;;;;;13.90;3.75;;;21.40;99.90;;;;;;5077065;28;20028;-66
2022/06/12 10:18:16;;;;;;;13.70;4.45;;;21.30;99.90;;;;;;5077084;28;20140;-67
2022/06/12 10:20:49;;;;;;;10.65;4.43;;;21.70;99.90;;;;;;5077169;28;20056;-66
2022/06/12 10:23:15;;;;;;;12.70;4.35;;;22.10;99.90;;;;;;5076960;28;20028;-68
2022/06/12 10:25:49;;;;;;;10.88;3.40;;;22.00;99.90;;;;;;5076418;28;20090;-65
2022/06/12 10:28:15;;;;;;;10.93;3.92;;;22.40;99.90;;;;;;5076728;28;20415;-69
2022/06/12 10:30:43;;;;;;;11.82;3.65;;;21.60;99.90;;;;;;5076902;28;20052;-66
2022/06/12 10:33:24;;;;;;;7.60;3.40;;;21.90;99.90;;;;;;5076850;28;20028;-65
2022/06/12 10:35:56;;;;;;;12.43;4.00;;;22.10;99.90;;;;;;5076054;28;20133;-68
2022/06/12 10:38:24;;;;;;;9.93;3.40;;;22.20;99.90;;;;;;5077386;28;20039;-64
2022/06/12 10:40:57;;;;;;;9.82;3.70;;;22.20;99.90;;;;;;5076757;28;20032;-66
2022/06/12 10:43:43;;;;;;;8.15;3.22;;;22.00;99.90;;;;;;5077172;28;20043;-68
2022/06/12 10:46:17;;;;;;;12.77;3.97;;;21.80;99.90;;;;;;5077024;28;20296;-67
2022/06/12 10:48:55;;;;;;;10.00;3.10;;;21.90;99.90;;;;;;5076794;28;20040;-67
2022/06/12 10:51:28;;;;;;;10.15;3.90;;;22.00;99.90;;;;;;5076496;28;20040;-67
2022/06/12 10:54:16;;;;;;;8.80;3.20;;;22.20;99.90;;;;;;5075850;28;20032;-66
2022/06/12 10:57:11;;;;;;;10.35;4.05;;;22.20;99.90;;;;;;5076453;28;20125;-67
2022/06/12 10:59:56;;;;;;;7.70;3.63;;;22.30;99.90;;;;;;5076172;28;20029;-66
2022/06/12 11:02:37;;;;;;;11.75;3.72;;;22.00;99.90;;;;;;5076890;28;20032;-68
2022/06/12 11:05:40;;;;;;;10.63;3.17;;;22.30;99.90;;;;;;5076582;28;20043;-67
2022/06/12 11:08:06;;;;;;;7.63;2.58;;;23.30;99.90;;;;;;5075827;28;20033;-66
2022/06/12 11:11:03;;;;;;;8.85;2.60;;;24.30;99.90;;;;;;5076444;28;20043;-68
2022/06/12 11:13:43;;;;;;;7.55;2.30;;;24.80;99.90;;;;;;5076174;28;20044;-69
2022/06/12 11:16:33;;;;;;;7.47;2.10;;;24.10;99.90;;;;;;5076365;28;20037;-68
2022/06/12 11:19:21;;;;;;;7.28;1.92;;;24.80;99.90;;;;;;5076508;28;20032;-68
2022/06/12 11:22:12;;;;;;;6.47;1.73;;;25.80;99.90;;;;;;5075703;28;20071;-68
2022/06/12 11:25:16;;;;;;;7.72;2.00;;;25.60;99.90;;;;;;5076916;28;20331;-69
2022/06/12 11:28:12;;;;;;;6.20;1.95;;;25.70;99.90;;;;;;5076307;28;20028;-67
2022/06/12 11:30:41;;;;;;;10.07;2.25;;;26.70;99.90;;;;;;5076898;28;20036;-67
2022/06/12 11:33:41;;;;;;;10.18;2.40;;;27.00;99.90;;;;;;5076492;28;20028;-68
2022/06/12 11:36:36;;;;;;;8.02;2.20;;;25.00;99.90;;;;;;5076190;28;20032;-67
2022/06/12 11:39:30;;;;;;;8.80;2.33;;;24.70;99.90;;;;;;5079283;28;20025;-67
2022/06/12 11:42:02;;;;;;;8.80;2.42;;;25.20;99.90;;;;;;5065589;28;20090;-68
2022/06/12 11:44:34;;;;;;;5.13;2.00;;;24.90;99.90;;;;;;5079933;28;20035;-67
2022/06/12 11:47:29;;;;;;;7.93;2.20;;;25.10;99.90;;;;;;5079732;28;20302;-65
2022/06/12 11:50:09;;;;;;;5.25;1.90;;;25.20;99.90;;;;;;5079520;28;20569;-66
2022/06/12 11:53:14;;;;;;;9.98;2.45;;;25.30;99.90;;;;;;5078860;28;20102;-68
2022/06/12 11:55:46;;;;;;;5.63;1.90;;;25.80;99.90;;;;;;5078396;28;20045;-67
2022/06/12 11:58:40;;;;;;;7.03;2.15;;;25.40;99.90;;;;;;5079603;28;20104;-65
2022/06/12 12:01:33;;;;;;;5.30;1.95;;;24.70;99.90;;;;;;5079721;28;20178;-65
2022/06/12 12:04:08;;;;;;;7.00;2.05;;;25.20;99.90;;;;;;5080020;28;20396;-66
2022/06/12 12:06:37;;;;;;;6.32;2.05;;;25.20;99.90;;;;;;5079353;28;20067;-67
2022/06/12 12:09:21;;;;;;;5.85;1.95;;;26.10;99.90;;;;;;5079672;28;20042;-65
2022/06/12 12:11:59;;;;;;;5.78;1.60;;;27.20;99.90;;;;;;5078574;28;20032;-67
2022/06/12 12:14:31;;;;;;;6.15;1.85;;;26.90;99.90;;;;;;5079452;28;20094;-67
2022/06/12 12:17:06;;;;;;;4.93;1.45;;;26.10;99.90;;;;;;5078442;28;20415;-67
2022/06/12 12:19:43;;;;;;;6.85;1.48;;;26.30;99.90;;;;;;5079147;28;20107;-68
2022/06/12 12:22:36;;;;;;;4.25;1.33;;;25.70;99.90;;;;;;5079025;28;20024;-67
2022/06/12 12:25:05;;;;;;;3.53;1.50;;;26.00;99.90;;;;;;5078616;28;20055;-67
2022/06/12 12:27:55;;;;;;;4.07;1.73;;;26.70;99.90;;;;;;5079227;28;20048;-63
2022/06/12 12:30:26;;;;;;;5.00;1.33;;;28.10;97.90;;;;;;5078615;28;20037;-69
2022/06/12 12:32:55;;;;;;;4.05;1.30;;;28.70;96.50;;;;;;5078972;28;20036;-68
2022/06/12 12:41:12;;;;;;;5.07;1.42;;;30.10;93.20;;;;;;5079055;28;20028;-67
2022/06/12 12:43:55;;;;;;;4.60;1.40;;;29.90;92.10;;;;;;5078666;28;20458;-69
2022/06/12 12:46:25;;;;;;;5.93;1.40;;;31.40;88.80;;;;;;5078206;28;20085;-70
2022/06/12 12:48:55;;;;;;;6.28;1.60;;;31.90;79.80;;;;;;5077956;28;20024;-66
2022/06/12 12:51:34;;;;;;;3.97;1.60;;;31.00;80.90;;;;;;5078497;28;20303;-67
2022/06/12 12:54:15;;;;;;;5.88;1.70;;;29.80;83.20;;;;;;5078511;28;20036;-67
2022/06/12 12:56:56;;;;;;;4.90;1.45;;;29.50;85.60;;;;;;5078419;28;20036;-68
2022/06/12 12:59:33;;;;;;;5.88;1.70;;;29.10;87.20;;;;;;5078459;28;20029;-67
2022/06/12 13:02:07;;;;;;;4.88;1.73;;;27.90;90.10;;;;;;5078407;28;20032;-67
2022/06/12 13:04:34;;;;;;;7.97;1.70;;;27.50;90.20;;;;;;5078351;28;20025;-65
2022/06/12 13:07:44;;;;;;;5.60;1.90;;;27.50;89.20;;;;;;5078247;28;20040;-66
2022/06/12 13:10:31;;;;;;;5.43;1.75;;;28.10;89.00;;;;;;5078212;28;20108;-67
2022/06/12 13:13:12;;;;;;;8.20;1.80;;;29.00;84.20;;;;;;5077461;28;20295;-68
2022/06/12 13:16:02;;;;;;;5.65;1.63;;;28.10;87.40;;;;;;5077389;28;20429;-69
2022/06/12 13:18:55;;;;;;;7.80;1.95;;;29.80;86.60;;;;;;5078047;28;20084;-67
2022/06/12 13:21:30;;;;;;;5.65;2.00;;;30.40;87.80;;;;;;5078013;28;20036;-65
2022/06/12 13:23:58;;;;;;;8.10;2.20;;;29.20;89.50;;;;;;5078539;28;20024;-65
2022/06/12 13:26:28;;;;;;;6.68;1.85;;;29.60;88.80;;;;;;5077704;28;20043;-66
2022/06/12 13:28:57;;;;;;;7.90;2.00;;;30.30;87.30;;;;;;5077032;28;20036;-67
2022/06/12 13:31:23;;;;;;;6.97;1.85;;;29.70;86.50;;;;;;5077771;28;20082;-67
2022/06/12 13:33:55;;;;;;;6.15;1.75;;;29.90;88.10;;;;;;5077826;28;20028;-68